createdAt,value
2017-06-13T00:01:04.872Z,56.00
2017-06-13T00:03:32.427Z,55.50
2017-06-13T00:05:59.988Z,55.70
2017-06-13T00:08:27.549Z,55.80
2017-06-13T00:10:55.059Z,55.90
2017-06-13T00:13:22.667Z,55.50
2017-06-13T00:15:50.228Z,56.00
2017-06-13T00:18:17.788Z,55.20
2017-06-13T00:20:45.303Z,54.70
2017-06-13T00:23:12.899Z,55.60
2017-06-13T00:25:40.465Z,55.00
2017-06-13T00:28:07.967Z,55.30
2017-06-13T00:30:35.572Z,55.70
2017-06-13T00:33:03.136Z,55.60
2017-06-13T00:35:30.796Z,55.50
2017-06-13T00:37:58.355Z,55.70
2017-06-13T00:40:25.911Z,55.90
2017-06-13T00:42:53.481Z,55.70
2017-06-13T00:45:21.003Z,55.80
2017-06-13T00:47:49.274Z,57.20
2017-06-13T00:50:17.588Z,57.40
2017-06-13T00:52:45.139Z,57.50
2017-06-13T00:55:12.703Z,56.50
2017-06-13T00:57:40.207Z,56.40
2017-06-13T01:00:07.743Z,56.70
2017-06-13T01:02:35.247Z,57.10
2017-06-13T01:05:03.515Z,57.70
2017-06-13T01:07:31.120Z,57.70
2017-06-13T01:09:58.627Z,57.80
2017-06-13T01:12:26.159Z,58.00
2017-06-13T01:14:53.667Z,57.40
2017-06-13T01:17:21.960Z,58.10
2017-06-13T01:19:49.523Z,58.00
2017-06-13T01:22:17.057Z,58.50
2017-06-13T01:24:45.331Z,58.50
2017-06-13T01:27:13.618Z,57.60
2017-06-13T01:29:41.127Z,57.60
2017-06-13T01:32:08.747Z,57.80
2017-06-13T01:34:36.259Z,57.90
2017-06-13T01:37:03.867Z,58.30
2017-06-13T01:39:31.370Z,57.60
2017-06-13T01:41:58.983Z,57.80
2017-06-13T01:44:26.952Z,57.70
2017-06-13T01:46:54.463Z,57.90
2017-06-13T01:49:21.984Z,58.00
2017-06-13T01:51:49.537Z,58.00
2017-06-13T01:54:17.058Z,58.50
2017-06-13T01:56:45.328Z,58.40
2017-06-13T01:59:13.615Z,59.60
2017-06-13T02:01:41.899Z,59.60
2017-06-13T02:04:09.423Z,59.60
2017-06-13T02:06:36.933Z,59.40
2017-06-13T02:09:04.456Z,59.40
2017-06-13T02:11:32.763Z,60.70
2017-06-13T02:14:00.328Z,60.70
2017-06-13T02:16:27.879Z,60.10
2017-06-13T02:18:55.403Z,60.20
2017-06-13T02:21:22.907Z,61.50
2017-06-13T02:23:50.411Z,60.80
2017-06-13T02:26:17.939Z,60.50
2017-06-13T02:28:45.448Z,60.10
2017-06-13T02:31:13.033Z,59.80
2017-06-13T02:33:40.539Z,61.00
2017-06-13T02:36:08.183Z,61.70
2017-06-13T02:38:35.963Z,62.50
2017-06-13T02:41:03.484Z,62.10
2017-06-13T02:43:30.989Z,61.80
2017-06-13T02:45:58.587Z,60.00
2017-06-13T02:48:26.094Z,60.30
2017-06-13T02:50:53.712Z,60.80
2017-06-13T02:53:21.804Z,62.00
2017-06-13T02:55:49.331Z,61.10
2017-06-13T02:58:16.999Z,61.10
2017-06-13T03:00:44.527Z,60.80
2017-06-13T03:03:12.830Z,61.60
2017-06-13T03:05:40.340Z,61.50
2017-06-13T03:08:07.863Z,61.90
2017-06-13T03:10:35.406Z,62.60
2017-06-13T03:13:02.931Z,63.60
2017-06-13T03:15:31.203Z,65.50
2017-06-13T03:17:58.736Z,64.50
2017-06-13T03:20:26.238Z,64.70
2017-06-13T03:22:54.848Z,63.90
2017-06-13T03:25:22.359Z,63.90
2017-06-13T03:27:49.964Z,64.60
2017-06-13T03:30:17.947Z,64.60
2017-06-13T03:32:45.472Z,64.30
2017-06-13T03:35:13.442Z,64.30
2017-06-13T03:37:41.720Z,64.20
2017-06-13T03:40:09.289Z,64.80
2017-06-13T03:42:36.816Z,64.20
2017-06-13T03:45:05.127Z,64.70
2017-06-13T03:47:32.688Z,64.70
2017-06-13T03:50:00.195Z,63.50
2017-06-13T03:52:27.704Z,63.10
2017-06-13T03:54:55.676Z,62.80
2017-06-13T03:57:23.495Z,62.80
2017-06-13T03:59:51.084Z,62.90
2017-06-13T04:02:18.657Z,62.20
2017-06-13T04:04:46.211Z,61.90
2017-06-13T04:07:13.725Z,62.20
2017-06-13T04:09:41.328Z,63.00
2017-06-13T04:12:08.839Z,62.70
2017-06-13T04:14:36.443Z,62.70
2017-06-13T04:17:03.947Z,62.90
2017-06-13T04:19:31.570Z,63.40
2017-06-13T04:21:59.123Z,64.20
2017-06-13T04:24:26.688Z,63.90
2017-06-13T04:26:54.190Z,64.40
2017-06-13T04:29:21.695Z,64.60
2017-06-13T04:31:49.227Z,63.80
2017-06-13T04:34:17.557Z,63.00
2017-06-13T04:36:45.075Z,63.00
2017-06-13T04:39:12.581Z,64.40
2017-06-13T04:41:40.103Z,63.90
2017-06-13T04:44:07.606Z,63.80
2017-06-13T04:46:35.130Z,63.60
2017-06-13T04:49:02.635Z,62.60
2017-06-13T04:51:30.159Z,62.10
2017-06-13T04:53:57.694Z,62.00
2017-06-13T04:56:25.216Z,63.10
2017-06-13T04:58:52.815Z,61.80
2017-06-13T05:01:20.339Z,61.30
2017-06-13T05:03:47.842Z,60.90
2017-06-13T05:06:15.388Z,62.60
2017-06-13T05:08:42.952Z,60.20
2017-06-13T05:11:10.457Z,59.50
2017-06-13T05:13:37.979Z,59.50
2017-06-13T05:16:05.528Z,59.40
2017-06-13T05:18:33.088Z,59.80
2017-06-13T05:21:00.756Z,60.50
2017-06-13T05:23:28.290Z,59.60
2017-06-13T05:25:56.463Z,59.40
2017-06-13T05:28:23.991Z,59.90
2017-06-13T05:30:51.495Z,59.10
2017-06-13T05:33:19.019Z,57.80
2017-06-13T05:35:47.798Z,58.50
2017-06-13T05:38:15.332Z,58.40
2017-06-13T05:40:42.839Z,58.20
2017-06-13T05:43:10.418Z,58.40
2017-06-13T05:45:37.972Z,56.90
2017-06-13T05:48:05.485Z,56.60
2017-06-13T05:50:33.087Z,56.50
2017-06-13T05:53:00.648Z,56.40
2017-06-13T05:55:28.210Z,56.50
2017-06-13T05:57:55.719Z,55.90
2017-06-13T06:00:23.331Z,55.70
2017-06-13T06:02:50.835Z,54.60
2017-06-13T06:05:18.363Z,54.70
2017-06-13T06:07:45.867Z,56.10
2017-06-13T06:10:14.177Z,55.30
2017-06-13T06:12:41.684Z,55.30
2017-06-13T06:15:09.290Z,54.00
2017-06-13T06:17:36.795Z,54.10
2017-06-13T06:20:04.410Z,54.40
2017-06-13T06:22:31.915Z,53.20
2017-06-13T06:24:59.424Z,53.70
2017-06-13T06:27:26.996Z,52.90
2017-06-13T06:29:54.502Z,52.90
2017-06-13T06:32:22.095Z,52.40
2017-06-13T06:34:49.663Z,51.10
2017-06-13T06:37:17.183Z,52.10
2017-06-13T06:39:44.699Z,50.70
2017-06-13T06:42:12.235Z,50.70
2017-06-13T06:44:39.747Z,50.60
2017-06-13T06:47:07.267Z,50.90
2017-06-13T06:49:34.817Z,49.60
2017-06-13T06:52:02.338Z,51.00
2017-06-13T06:54:30.610Z,50.90
2017-06-13T06:56:58.138Z,50.30
2017-06-13T06:59:25.668Z,50.00
2017-06-13T07:01:53.175Z,49.80
2017-06-13T07:04:20.780Z,50.30
2017-06-13T07:06:48.291Z,49.10
2017-06-13T07:09:15.811Z,50.30
2017-06-13T07:11:43.319Z,49.00
2017-06-13T07:14:11.607Z,49.50
2017-06-13T07:16:39.879Z,49.10
2017-06-13T07:19:08.164Z,47.90
2017-06-13T07:21:36.460Z,46.90
2017-06-13T07:24:03.980Z,46.90
2017-06-13T07:26:32.430Z,48.50
2017-06-13T07:28:59.951Z,48.40
2017-06-13T07:31:27.463Z,48.10
2017-06-13T07:33:55.067Z,48.20
2017-06-13T07:36:22.578Z,48.40
2017-06-13T07:38:50.080Z,47.80
2017-06-13T07:41:17.642Z,46.60
2017-06-13T07:43:45.143Z,46.90
2017-06-13T07:46:12.667Z,46.50
2017-06-13T07:48:40.172Z,46.70
2017-06-13T07:51:07.775Z,49.00
2017-06-13T07:53:35.287Z,47.00
2017-06-13T07:56:02.827Z,46.40
2017-06-13T07:58:30.326Z,46.80
2017-06-13T08:00:58.612Z,47.00
2017-06-13T08:03:26.264Z,47.00
2017-06-13T08:05:54.564Z,48.20
2017-06-13T08:08:22.162Z,48.20
2017-06-13T08:10:49.687Z,46.80
2017-06-13T08:13:17.238Z,48.60
2017-06-13T08:15:44.802Z,48.60
2017-06-13T08:18:12.314Z,46.60
2017-06-13T08:20:39.824Z,46.20
2017-06-13T08:23:07.378Z,45.80
2017-06-13T08:25:34.934Z,46.20
2017-06-13T08:28:02.457Z,46.20
2017-06-13T08:30:30.051Z,48.00
2017-06-13T08:32:57.614Z,46.30
2017-06-13T08:35:25.119Z,45.90
2017-06-13T08:37:52.639Z,45.10
2017-06-13T08:40:20.150Z,44.50
2017-06-13T08:42:47.743Z,44.70
2017-06-13T08:45:15.249Z,45.10
2017-06-13T08:47:42.858Z,45.30
2017-06-13T08:50:10.547Z,45.60
2017-06-13T08:52:38.051Z,45.10
2017-06-13T08:55:06.365Z,46.50
2017-06-13T08:57:33.873Z,46.20
2017-06-13T09:00:01.479Z,45.00
2017-06-13T09:02:29.038Z,46.10
2017-06-13T09:04:56.559Z,44.30
2017-06-13T09:07:24.074Z,44.90
2017-06-13T09:09:51.606Z,45.10
2017-06-13T09:12:19.731Z,44.40
2017-06-13T09:14:47.247Z,46.00
2017-06-13T09:17:14.750Z,45.50
2017-06-13T09:19:42.354Z,45.50
2017-06-13T09:22:10.438Z,46.20
2017-06-13T09:24:37.975Z,45.50
2017-06-13T09:27:06.162Z,45.90
2017-06-13T09:29:34.035Z,47.40
2017-06-13T09:32:01.568Z,45.90
2017-06-13T09:34:29.842Z,44.60
2017-06-13T09:36:58.131Z,45.20
2017-06-13T09:39:25.632Z,45.10
2017-06-13T09:41:53.151Z,45.10
2017-06-13T09:44:20.714Z,46.40
2017-06-13T09:46:48.234Z,44.40
2017-06-13T09:49:15.827Z,43.70
2017-06-13T09:51:43.346Z,47.00
2017-06-13T09:54:10.853Z,44.40
2017-06-13T09:56:38.392Z,45.90
2017-06-13T09:59:05.966Z,46.30
2017-06-13T10:01:33.826Z,46.00
2017-06-13T10:04:01.347Z,43.60
2017-06-13T10:06:29.574Z,43.50
2017-06-13T10:08:57.095Z,44.20
2017-06-13T10:11:25.523Z,45.80
2017-06-13T10:13:53.262Z,45.70
2017-06-13T10:16:21.191Z,46.10
2017-06-13T10:18:48.787Z,43.10
2017-06-13T10:21:16.391Z,44.20
2017-06-13T10:23:44.014Z,43.30
2017-06-13T10:26:11.565Z,45.30
2017-06-13T10:28:39.127Z,45.10
2017-06-13T10:31:06.635Z,44.70
2017-06-13T10:33:34.242Z,43.90
2017-06-13T10:36:02.567Z,45.00
2017-06-13T10:38:30.074Z,45.60
2017-06-13T10:40:57.642Z,43.70
2017-06-13T10:43:25.326Z,43.30
2017-06-13T10:45:52.843Z,43.90
2017-06-13T10:48:21.887Z,43.50
2017-06-13T10:50:49.407Z,43.50
2017-06-13T10:53:16.902Z,43.60
2017-06-13T10:55:44.526Z,41.90
2017-06-13T10:58:12.031Z,40.80
2017-06-13T11:00:39.646Z,38.50
2017-06-13T11:03:07.155Z,37.10
2017-06-13T11:05:34.763Z,36.20
2017-06-13T11:08:02.478Z,36.80
2017-06-13T11:10:30.006Z,36.70
2017-06-13T11:12:57.529Z,38.90
2017-06-13T11:15:25.833Z,38.10
2017-06-13T11:17:53.734Z,38.00
2017-06-13T11:20:21.235Z,37.80
2017-06-13T11:22:48.780Z,36.10
2017-06-13T11:25:17.059Z,37.00
2017-06-13T11:27:45.342Z,37.20
2017-06-13T11:30:12.847Z,37.20
2017-06-13T11:32:40.368Z,38.00
2017-06-13T11:35:07.867Z,39.90
2017-06-13T11:37:35.386Z,38.70
2017-06-13T11:40:02.890Z,39.10
2017-06-13T11:42:30.414Z,38.70
2017-06-13T11:44:57.919Z,40.00
2017-06-13T11:47:25.454Z,40.00
2017-06-13T11:49:52.955Z,40.50
2017-06-13T11:52:21.251Z,41.10
2017-06-13T11:54:48.807Z,41.10
2017-06-13T11:57:16.314Z,40.80
2017-06-13T11:59:43.839Z,41.00
2017-06-13T12:02:11.391Z,42.30
2017-06-13T12:04:38.924Z,41.80
2017-06-13T12:07:07.222Z,42.00
2017-06-13T12:09:34.774Z,41.90
2017-06-13T12:12:02.282Z,42.40
2017-06-13T12:14:29.899Z,41.90
2017-06-13T12:16:57.570Z,42.40
2017-06-13T12:19:25.091Z,41.60
2017-06-13T12:21:53.358Z,44.60
2017-06-13T12:24:20.964Z,44.60
2017-06-13T12:26:48.470Z,41.70
2017-06-13T12:29:15.975Z,43.10
2017-06-13T12:31:43.494Z,42.60
2017-06-13T12:34:11.763Z,40.90
2017-06-13T12:36:39.282Z,40.60
2017-06-13T12:39:07.491Z,40.20
2017-06-13T12:41:35.091Z,41.30
2017-06-13T12:44:02.655Z,39.90
2017-06-13T12:46:30.219Z,40.90
2017-06-13T12:48:57.726Z,41.60
2017-06-13T12:51:25.327Z,41.40
2017-06-13T12:53:52.827Z,41.50
2017-06-13T12:56:21.059Z,41.60
2017-06-13T12:58:48.558Z,43.00
2017-06-13T13:01:16.062Z,41.80
2017-06-13T13:03:44.455Z,40.40
2017-06-13T13:06:12.026Z,40.50
2017-06-13T13:08:39.574Z,40.80
2017-06-13T13:11:07.087Z,40.70
2017-06-13T13:13:34.686Z,41.10
2017-06-13T13:16:02.259Z,40.50
2017-06-13T13:18:29.806Z,41.40
2017-06-13T13:20:57.315Z,41.40
2017-06-13T13:23:24.836Z,40.30
2017-06-13T13:25:52.383Z,40.90
2017-06-13T13:28:19.886Z,40.00
2017-06-13T13:30:47.410Z,40.10
2017-06-13T13:33:15.163Z,41.40
2017-06-13T13:35:42.682Z,41.90
2017-06-13T13:38:10.795Z,40.90
2017-06-13T13:40:38.352Z,40.40
2017-06-13T13:43:05.862Z,40.00
2017-06-13T13:45:33.383Z,39.00
2017-06-13T13:48:00.886Z,40.40
2017-06-13T13:50:28.407Z,41.50
2017-06-13T13:52:55.943Z,41.20
2017-06-13T13:55:23.458Z,39.90
2017-06-13T13:57:51.058Z,38.70
2017-06-13T14:00:18.557Z,40.30
2017-06-13T14:02:46.181Z,38.10
2017-06-13T14:05:13.687Z,38.10
2017-06-13T14:07:41.307Z,38.20
2017-06-13T14:10:09.029Z,38.20
2017-06-13T14:12:37.322Z,40.20
2017-06-13T14:15:05.594Z,41.40
2017-06-13T14:17:33.887Z,40.80
2017-06-13T14:20:01.390Z,40.80
2017-06-13T14:22:29.006Z,40.30
2017-06-13T14:24:56.511Z,39.10
2017-06-13T14:27:24.031Z,39.60
2017-06-13T14:29:51.539Z,41.90
2017-06-13T14:32:19.150Z,40.00
2017-06-13T14:34:46.650Z,41.40
2017-06-13T14:37:14.258Z,39.30
2017-06-13T14:39:41.815Z,38.20
2017-06-13T14:42:09.578Z,37.60
2017-06-13T14:44:37.147Z,38.70
2017-06-13T14:47:04.699Z,37.70
2017-06-13T14:49:32.254Z,36.60
2017-06-13T14:51:59.750Z,37.70
2017-06-13T14:54:27.271Z,36.80
2017-06-13T14:56:54.786Z,37.80
2017-06-13T14:59:22.320Z,36.90
2017-06-13T15:01:50.103Z,35.90
2017-06-13T15:04:17.714Z,35.90
2017-06-13T15:06:45.219Z,36.80
2017-06-13T15:09:12.830Z,37.40
2017-06-13T15:11:40.387Z,36.40
2017-06-13T15:14:07.951Z,34.90
2017-06-13T15:16:35.455Z,36.30
2017-06-13T15:19:02.962Z,35.20
2017-06-13T15:21:30.479Z,34.70
2017-06-13T15:23:58.078Z,34.50
2017-06-13T15:26:25.599Z,34.00
2017-06-13T15:28:53.927Z,33.60
2017-06-13T15:31:21.475Z,33.30
2017-06-13T15:33:49.043Z,30.60
2017-06-13T15:36:16.595Z,30.60
2017-06-13T15:38:44.099Z,29.60
2017-06-13T15:41:11.617Z,29.30
2017-06-13T15:43:39.167Z,29.30
2017-06-13T15:46:06.697Z,28.90
2017-06-13T15:48:34.299Z,28.60
2017-06-13T15:51:01.846Z,28.20
2017-06-13T15:53:29.407Z,27.70
2017-06-13T15:55:57.167Z,27.60
2017-06-13T15:58:24.732Z,27.50
2017-06-13T16:00:52.247Z,26.90
2017-06-13T16:03:19.762Z,26.70
2017-06-13T16:05:47.262Z,25.80
2017-06-13T16:08:14.859Z,24.70
2017-06-13T16:10:42.419Z,24.40
2017-06-13T16:13:09.978Z,23.70
2017-06-13T16:15:37.482Z,23.10
2017-06-13T16:18:05.095Z,22.90
2017-06-13T16:20:32.603Z,22.60
2017-06-13T16:23:00.215Z,23.20
2017-06-13T16:25:27.723Z,22.90
2017-06-13T16:27:55.249Z,22.80
2017-06-13T16:30:22.786Z,22.00
2017-06-13T16:32:50.316Z,22.10
2017-06-13T16:35:18.587Z,23.50
2017-06-13T16:37:47.002Z,24.60
2017-06-13T16:40:14.512Z,24.90
2017-06-13T16:42:42.128Z,26.50
2017-06-13T16:45:09.658Z,26.60
2017-06-13T16:47:37.927Z,27.40
2017-06-13T16:50:06.233Z,25.70
2017-06-13T16:52:33.791Z,25.70
2017-06-13T16:55:01.347Z,26.70
2017-06-13T16:57:28.850Z,27.50
2017-06-13T16:59:56.376Z,27.60
2017-06-13T17:02:23.878Z,29.20
2017-06-13T17:04:51.403Z,30.00
2017-06-13T17:07:18.920Z,31.00
2017-06-13T17:09:46.619Z,31.60
2017-06-13T17:12:14.122Z,31.90
2017-06-13T17:14:42.419Z,33.10
2017-06-13T17:17:10.143Z,33.30
2017-06-13T17:19:37.767Z,33.40
2017-06-13T17:22:05.324Z,33.10
2017-06-13T17:24:32.878Z,34.60
2017-06-13T17:27:00.387Z,35.90
2017-06-13T17:29:28.008Z,36.40
2017-06-13T17:31:55.550Z,35.30
2017-06-13T17:34:23.430Z,35.40
2017-06-13T17:36:51.726Z,36.00
2017-06-13T17:39:19.264Z,35.30
2017-06-13T17:41:46.897Z,35.40
2017-06-13T17:44:15.186Z,34.50
2017-06-13T17:46:42.752Z,34.50
2017-06-13T17:49:10.263Z,35.70
2017-06-13T17:51:37.782Z,36.10
2017-06-13T17:54:05.286Z,36.00
2017-06-13T17:56:33.575Z,33.60
2017-06-13T17:59:01.847Z,33.10
2017-06-13T18:01:30.151Z,32.00
2017-06-13T18:03:58.267Z,32.00
2017-06-13T18:06:25.771Z,32.90
2017-06-13T18:08:53.340Z,32.90
2017-06-13T18:11:21.420Z,33.70
2017-06-13T18:13:48.971Z,33.20
2017-06-13T18:16:16.487Z,33.80
2017-06-13T18:18:44.094Z,34.40
2017-06-13T18:21:11.652Z,34.90
2017-06-13T18:23:39.193Z,35.40
2017-06-13T18:26:06.703Z,37.00
2017-06-13T18:28:34.245Z,36.50
2017-06-13T18:31:01.751Z,36.40
2017-06-13T18:33:30.055Z,37.10
2017-06-13T18:35:57.621Z,37.10
2017-06-13T18:38:25.176Z,37.20
2017-06-13T18:40:52.687Z,37.40
2017-06-13T18:43:20.358Z,38.30
2017-06-13T18:45:47.882Z,38.80
2017-06-13T18:48:15.411Z,39.60
2017-06-13T18:50:42.943Z,38.40
2017-06-13T18:53:12.029Z,38.80
2017-06-13T18:55:40.339Z,39.80
2017-06-13T18:58:07.854Z,39.00
2017-06-13T19:00:35.380Z,39.20
2017-06-13T19:03:02.887Z,40.30
2017-06-13T19:05:31.175Z,40.30
2017-06-13T19:07:58.763Z,40.30
2017-06-13T19:10:26.298Z,40.30
2017-06-13T19:12:53.803Z,42.00
2017-06-13T19:15:21.427Z,40.90
2017-06-13T19:17:48.999Z,41.10
2017-06-13T19:20:16.535Z,41.30
2017-06-13T19:22:44.054Z,41.50
2017-06-13T19:25:11.663Z,41.70
2017-06-13T19:27:39.171Z,42.30
2017-06-13T19:30:06.680Z,42.30
2017-06-13T19:32:34.211Z,42.60
2017-06-13T19:35:02.517Z,42.90
2017-06-13T19:37:30.040Z,42.70
2017-06-13T19:39:58.312Z,43.20
2017-06-13T19:42:26.599Z,43.30
2017-06-13T19:44:54.871Z,43.60
2017-06-13T19:47:23.178Z,43.50
2017-06-13T19:49:50.686Z,43.40
2017-06-13T19:52:18.207Z,43.90
2017-06-13T19:54:45.714Z,43.90
2017-06-13T19:57:14.023Z,44.40
2017-06-13T19:59:41.683Z,44.20
2017-06-13T20:02:09.251Z,44.50
2017-06-13T20:04:36.772Z,44.90
2017-06-13T20:07:05.083Z,45.90
2017-06-13T20:09:32.594Z,45.60
2017-06-13T20:12:00.199Z,46.20
2017-06-13T20:14:27.759Z,45.90
2017-06-13T20:16:55.274Z,45.90
2017-06-13T20:19:22.874Z,46.30
2017-06-13T20:21:50.385Z,46.50
2017-06-13T20:24:17.906Z,46.80
2017-06-13T20:26:45.407Z,47.20
2017-06-13T20:29:13.861Z,48.20
2017-06-13T20:31:41.372Z,48.80
2017-06-13T20:34:09.659Z,48.30
2017-06-13T20:36:37.166Z,48.30
2017-06-13T20:39:04.703Z,48.30
2017-06-13T20:41:32.208Z,48.40
2017-06-13T20:44:00.514Z,49.20
2017-06-13T20:46:28.070Z,49.10
2017-06-13T20:48:55.575Z,49.60
2017-06-13T20:51:23.098Z,50.40
2017-06-13T20:53:50.646Z,50.30
2017-06-13T20:56:18.203Z,50.40
2017-06-13T20:58:45.712Z,50.60
2017-06-13T21:01:13.283Z,51.00
2017-06-13T21:03:41.515Z,50.80
2017-06-13T21:06:09.055Z,51.70
2017-06-13T21:08:36.567Z,52.00
2017-06-13T21:11:04.091Z,52.60
2017-06-13T21:13:31.631Z,52.60
2017-06-13T21:15:59.917Z,52.40
2017-06-13T21:18:27.418Z,53.00
2017-06-13T21:20:54.942Z,53.60
2017-06-13T21:23:22.447Z,52.70
2017-06-13T21:25:50.715Z,52.50
2017-06-13T21:28:18.311Z,52.50
2017-06-13T21:30:45.818Z,52.70
2017-06-13T21:33:13.430Z,53.10
2017-06-13T21:35:40.995Z,53.20
2017-06-13T21:38:08.550Z,54.10
2017-06-13T21:40:36.311Z,53.80
2017-06-13T21:43:03.835Z,53.70
2017-06-13T21:45:31.335Z,53.60
2017-06-13T21:47:58.860Z,53.60
2017-06-13T21:50:27.127Z,54.40
2017-06-13T21:52:55.444Z,54.60
2017-06-13T21:55:23.734Z,54.10
2017-06-13T21:57:51.235Z,54.60
2017-06-13T22:00:18.827Z,54.80
2017-06-13T22:02:46.394Z,54.60
2017-06-13T22:05:14.471Z,54.60
2017-06-13T22:07:42.488Z,54.00
2017-06-13T22:10:10.097Z,54.30
2017-06-13T22:12:37.609Z,54.30
2017-06-13T22:15:05.220Z,54.10
2017-06-13T22:17:33.690Z,54.30
2017-06-13T22:20:01.218Z,54.70
2017-06-13T22:22:29.527Z,55.20
2017-06-13T22:24:57.319Z,54.50
2017-06-13T22:27:24.834Z,54.40
2017-06-13T22:29:53.638Z,54.50
2017-06-13T22:32:21.238Z,54.50
2017-06-13T22:34:48.747Z,54.10
2017-06-13T22:37:16.271Z,54.50
2017-06-13T22:39:43.775Z,55.30
2017-06-13T22:42:11.757Z,55.70
2017-06-13T22:44:39.295Z,54.90
2017-06-13T22:47:06.811Z,54.70
2017-06-13T22:49:34.316Z,54.40
2017-06-13T22:52:01.871Z,55.30
2017-06-13T22:54:29.384Z,54.40
2017-06-13T22:56:56.910Z,54.70
2017-06-13T22:59:24.406Z,55.50
2017-06-13T23:01:51.911Z,55.10
2017-06-13T23:04:19.495Z,56.00
2017-06-13T23:06:47.000Z,55.60
2017-06-13T23:09:15.287Z,55.70
2017-06-13T23:11:42.791Z,55.70
2017-06-13T23:14:10.318Z,55.30
2017-06-13T23:16:38.542Z,55.90
2017-06-13T23:19:06.131Z,56.40
2017-06-13T23:21:34.426Z,55.50
2017-06-13T23:24:01.982Z,55.40
2017-06-13T23:26:29.539Z,55.70
2017-06-13T23:28:57.098Z,56.60
2017-06-13T23:31:24.659Z,56.90
2017-06-13T23:33:52.162Z,57.50
2017-06-13T23:36:19.774Z,57.30
2017-06-13T23:38:47.282Z,57.50
2017-06-13T23:41:15.167Z,57.60
2017-06-13T23:43:43.475Z,58.50
2017-06-13T23:46:10.992Z,58.50
2017-06-13T23:48:38.496Z,58.90
2017-06-13T23:51:06.031Z,59.20
2017-06-13T23:53:34.338Z,59.50
2017-06-13T23:56:01.847Z,59.50
2017-06-13T23:58:29.447Z,59.20
